createdAt,value
2018-12-07T00:00:11.825Z,975.36
2018-12-07T00:03:41.769Z,975.66
2018-12-07T00:07:11.912Z,975.97
2018-12-07T00:10:41.979Z,976.1
2018-12-07T00:14:13.266Z,976.06
2018-12-07T00:17:43.526Z,975.71
2018-12-07T00:21:13.679Z,975.26
2018-12-07T00:24:43.670Z,975.05
2018-12-07T00:28:13.803Z,974.77
2018-12-07T00:31:43.765Z,974.67
2018-12-07T00:35:13.966Z,974.92
2018-12-07T00:38:44.210Z,974.95
2018-12-07T00:42:14.320Z,974.92
2018-12-07T00:45:44.472Z,974.89
2018-12-07T00:49:14.484Z,974.67
2018-12-07T00:52:44.525Z,974.92
2018-12-07T00:56:14.507Z,974.82
2018-12-07T00:59:44.529Z,974.77
2018-12-07T01:03:14.652Z,974.59
2018-12-07T01:06:44.783Z,975.11
2018-12-07T01:10:14.845Z,975.5
2018-12-07T01:13:44.927Z,975.62
2018-12-07T01:17:15.238Z,975.91
2018-12-07T01:20:45.270Z,976.3
2018-12-07T01:24:15.362Z,976.18
2018-12-07T01:27:45.485Z,976.34
2018-12-07T01:31:15.557Z,976.42
2018-12-07T01:34:45.705Z,976.88
2018-12-07T01:38:15.830Z,976.74
2018-12-07T01:41:45.932Z,976.66
2018-12-07T01:45:16.014Z,976.5
2018-12-07T01:48:46.286Z,976.49
2018-12-07T01:52:16.424Z,976.34
2018-12-07T01:55:46.561Z,976.14
2018-12-07T01:59:16.702Z,975.95
2018-12-07T02:00:11.450Z,975.87
2018-12-07T02:03:41.441Z,975.76
2018-12-07T02:07:43.872Z,975.58
2018-12-07T02:11:13.957Z,975.44
2018-12-07T02:14:44.045Z,975.12
2018-12-07T02:18:14.068Z,974.68
2018-12-07T02:21:44.200Z,974.39
2018-12-07T02:25:14.161Z,974.11
2018-12-07T02:28:44.374Z,973.72
2018-12-07T02:32:14.415Z,973.33
2018-12-07T02:35:44.541Z,973.28
2018-12-07T02:39:14.534Z,973.13
2018-12-07T02:42:44.611Z,973.09
2018-12-07T02:46:14.633Z,973.23
2018-12-07T02:49:44.955Z,973.06
2018-12-07T02:53:14.967Z,972.91
2018-12-07T02:56:45.062Z,973.04
2018-12-07T03:00:15.277Z,973.03
2018-12-07T03:03:45.382Z,973.15
2018-12-07T03:07:15.375Z,973.41
2018-12-07T03:10:45.388Z,973.53
2018-12-07T03:14:15.334Z,973.7
2018-12-07T03:17:45.400Z,973.76
2018-12-07T03:21:15.506Z,974.4
2018-12-07T03:24:45.783Z,974.05
2018-12-07T03:28:15.873Z,973.95
2018-12-07T03:31:45.979Z,973.76
2018-12-07T03:35:16.126Z,973.9
2018-12-07T03:38:46.531Z,973.93
2018-12-07T03:42:16.623Z,974.15
2018-12-07T03:45:46.715Z,974.06
2018-12-07T03:49:16.790Z,973.86
2018-12-07T03:52:47.189Z,973.61
2018-12-07T03:56:17.141Z,973.19
2018-12-07T03:59:47.213Z,973.16
2018-12-07T04:00:11.320Z,973.23
2018-12-07T04:03:41.849Z,973.03
2018-12-07T04:07:11.986Z,973.02
2018-12-07T04:10:42.058Z,972.81
2018-12-07T04:14:12.101Z,972.65
2018-12-07T04:17:42.148Z,972.34
2018-12-07T04:21:12.324Z,972.15
2018-12-07T04:24:42.394Z,971.81
2018-12-07T04:28:12.402Z,972.08
2018-12-07T04:31:42.654Z,972.15
2018-12-07T04:35:12.644Z,972.18
2018-12-07T04:38:42.714Z,972.12
2018-12-07T04:42:12.769Z,972.21
2018-12-07T04:45:42.738Z,972.27
2018-12-07T04:49:12.880Z,972.3
2018-12-07T04:52:43.061Z,972.4
2018-12-07T04:56:13.191Z,972.45
2018-12-07T04:59:43.145Z,972.43
2018-12-07T05:03:13.252Z,972.57
2018-12-07T05:06:43.359Z,972.6
2018-12-07T05:10:13.521Z,972.68
2018-12-07T05:13:43.533Z,972.7
2018-12-07T05:17:13.615Z,972.66
2018-12-07T05:20:43.787Z,972.77
2018-12-07T05:24:13.827Z,972.83
2018-12-07T05:27:43.960Z,972.91
2018-12-07T05:31:14.114Z,972.87
2018-12-07T05:34:44.121Z,973.09
2018-12-07T05:38:14.152Z,973.43
2018-12-07T05:41:44.229Z,973.9
2018-12-07T05:45:14.420Z,974.39
2018-12-07T05:48:44.522Z,974.92
2018-12-07T05:52:14.714Z,975.51
2018-12-07T05:55:44.796Z,976.15
2018-12-07T05:59:15.098Z,977.01
2018-12-07T06:00:10.276Z,977.25
2018-12-07T06:03:40.322Z,977.94
2018-12-07T06:07:10.360Z,978.58
2018-12-07T06:10:40.347Z,979.1
2018-12-07T06:14:10.435Z,979.74
2018-12-07T06:17:40.465Z,980.24
2018-12-07T06:21:10.455Z,980.5
2018-12-07T06:24:40.499Z,981.05
2018-12-07T06:28:10.571Z,981.75
2018-12-07T06:31:40.734Z,982.47
2018-12-07T06:35:10.926Z,983.18
2018-12-07T06:38:41.028Z,983.99
2018-12-07T06:42:11.309Z,984.55
2018-12-07T06:45:41.381Z,985.05
2018-12-07T06:49:12.073Z,985.5
2018-12-07T06:52:42.035Z,985.73
2018-12-07T06:56:12.117Z,986.37
2018-12-07T06:59:42.381Z,986.4
2018-12-07T07:03:12.491Z,985.44
2018-12-07T07:06:42.493Z,984.33
2018-12-07T07:10:12.460Z,984.47
2018-12-07T07:13:42.657Z,984.55
2018-12-07T07:17:12.889Z,984.63
2018-12-07T07:20:42.975Z,984.21
2018-12-07T07:24:13.293Z,983.43
2018-12-07T07:27:43.315Z,982.54
2018-12-07T07:31:13.416Z,981.75
2018-12-07T07:34:43.439Z,981.41
2018-12-07T07:38:13.591Z,981.56
2018-12-07T07:41:43.623Z,982.11
2018-12-07T07:45:13.785Z,982.53
2018-12-07T07:48:43.751Z,983.31
2018-12-07T07:52:13.824Z,983.85
2018-12-07T07:55:43.863Z,984.64
2018-12-07T07:59:13.943Z,985.42
2018-12-07T08:00:10.421Z,985.53
2018-12-07T08:03:40.443Z,986.09
2018-12-07T08:07:10.565Z,986.33
2018-12-07T08:10:40.607Z,986.84
2018-12-07T08:14:10.619Z,987.2
2018-12-07T08:17:40.688Z,987.25
2018-12-07T08:21:10.783Z,988
2018-12-07T08:24:40.856Z,988.78
2018-12-07T08:28:11.012Z,989.36
2018-12-07T08:31:41.225Z,989.71
2018-12-07T08:35:11.342Z,990.37
2018-12-07T08:38:41.424Z,990.66
2018-12-07T08:42:11.526Z,991.09
2018-12-07T08:45:41.627Z,991.44
2018-12-07T08:49:11.673Z,991.82
2018-12-07T08:52:41.702Z,991.46
2018-12-07T08:56:11.793Z,992.09
2018-12-07T08:59:41.869Z,992.48
2018-12-07T09:03:12.113Z,992.57
2018-12-07T09:14:24.973Z,992.57
2018-12-07T09:17:55.045Z,992.39
2018-12-07T09:21:25.037Z,992.67
2018-12-07T09:24:55.089Z,992.95
2018-12-07T09:28:25.101Z,992.44
2018-12-07T09:31:55.183Z,993.45
2018-12-07T09:35:25.322Z,994.09
2018-12-07T09:38:55.407Z,994.33
2018-12-07T09:42:25.626Z,994.7
2018-12-07T09:45:55.671Z,995.17
2018-12-07T09:49:25.904Z,995.43
2018-12-07T09:52:55.981Z,995.62
2018-12-07T09:56:26.118Z,995.94
2018-12-07T10:00:09.912Z,997
2018-12-07T10:03:40.084Z,996.61
2018-12-07T10:07:10.177Z,997.84
2018-12-07T10:10:40.387Z,997.98
2018-12-07T10:14:10.539Z,999.26
2018-12-07T10:17:40.636Z,1000.69
2018-12-07T10:21:10.723Z,1001.72
2018-12-07T10:24:40.956Z,1001.85
2018-12-07T10:28:11.018Z,1003.12
2018-12-07T10:31:41.170Z,1004.13
2018-12-07T10:35:11.303Z,1003.74
2018-12-07T10:38:41.335Z,1005.3
2018-12-07T10:42:11.357Z,1007.6
2018-12-07T10:45:41.449Z,1009.95
2018-12-07T10:49:11.464Z,1011.92
2018-12-07T10:52:41.624Z,1009.83
2018-12-07T10:56:11.646Z,1009.34
2018-12-07T10:59:41.628Z,1008.75
2018-12-07T11:09:43.397Z,1010.39
2018-12-07T12:00:09.907Z,1013.01
2018-12-07T12:03:39.919Z,1014.49
2018-12-07T12:07:09.972Z,1014.61
2018-12-07T12:10:40.195Z,1013.58
2018-12-07T12:14:10.167Z,1012.71
2018-12-07T12:17:40.162Z,1013.1
2018-12-07T12:21:10.104Z,1010.5
2018-12-07T12:24:40.184Z,1010.7
2018-12-07T12:28:10.227Z,1012.24
2018-12-07T12:31:40.119Z,1012.72
2018-12-07T12:35:10.201Z,1009.94
2018-12-07T12:38:40.209Z,1008.92
2018-12-07T12:42:10.316Z,1010.17
2018-12-07T12:45:40.588Z,1009.08
2018-12-07T12:49:10.633Z,1009.01
2018-12-07T12:52:40.594Z,1007.84
2018-12-07T12:56:10.587Z,1007.55
2018-12-07T12:59:40.628Z,1006.43
2018-12-07T13:03:10.718Z,1006.13
2018-12-07T13:06:40.896Z,1005.23
2018-12-07T13:10:10.995Z,1004.75
2018-12-07T13:13:41.277Z,1005.38
2018-12-07T13:17:11.379Z,1005.26
2018-12-07T13:20:41.422Z,1004.39
2018-12-07T13:24:11.494Z,1003.08
2018-12-07T13:27:41.580Z,1003.07
2018-12-07T13:31:12.030Z,1003.18
2018-12-07T13:34:42.071Z,1002.48
2018-12-07T13:38:12.176Z,1000.7
2018-12-07T13:41:42.368Z,1001.23
2018-12-07T13:45:12.511Z,1002.14
2018-12-07T13:48:42.871Z,1001.86
2018-12-07T13:52:13.098Z,1001.97
2018-12-07T13:55:43.232Z,1001.19
2018-12-07T13:59:13.460Z,1000.9
2018-12-07T14:00:09.737Z,1000.84
2018-12-07T14:03:39.956Z,1000.01
2018-12-07T14:07:10.262Z,999.97
2018-12-07T14:10:40.279Z,1000.14
2018-12-07T14:14:10.569Z,999.34
2018-12-07T14:17:40.657Z,999.62
2018-12-07T14:21:10.744Z,999.12
2018-12-07T14:24:40.827Z,998.78
2018-12-07T14:28:10.926Z,998.51
2018-12-07T14:31:41.115Z,997.82
2018-12-07T14:35:11.280Z,997.51
2018-12-07T14:38:41.448Z,996.69
2018-12-07T14:42:11.633Z,996.31
2018-12-07T14:45:41.708Z,995.65
2018-12-07T14:49:12.182Z,994.99
2018-12-07T14:52:42.316Z,994.02
2018-12-07T14:56:12.509Z,993.92
2018-12-07T14:59:42.541Z,993.24
2018-12-07T15:03:12.755Z,993.15
2018-12-07T15:06:42.943Z,992.74
2018-12-07T15:10:13.139Z,992.72
2018-12-07T15:13:43.403Z,992.56
2018-12-07T15:17:13.722Z,992.74
2018-12-07T15:20:43.654Z,992.34
2018-12-07T15:24:13.911Z,992.27
2018-12-07T15:27:44.066Z,991.88
2018-12-07T15:31:14.318Z,991.82
2018-12-07T15:34:44.445Z,991.57
2018-12-07T15:38:14.515Z,991.51
2018-12-07T15:41:44.761Z,991.77
2018-12-07T15:45:14.861Z,992.14
2018-12-07T15:48:45.159Z,991.63
2018-12-07T15:52:15.330Z,991.54
2018-12-07T15:55:45.676Z,991.53
2018-12-07T15:59:16.077Z,991.84
2018-12-07T16:00:09.804Z,992.01
2018-12-07T16:03:39.900Z,992.02
2018-12-07T16:07:10.211Z,992.08
2018-12-07T16:10:40.292Z,992.53
2018-12-07T16:14:10.363Z,992.68
2018-12-07T16:17:40.748Z,992.74
2018-12-07T16:21:10.808Z,992.62
2018-12-07T16:24:40.990Z,992.6
2018-12-07T16:28:11.270Z,992.54
2018-12-07T16:31:41.310Z,992.82
2018-12-07T16:35:11.736Z,993.14
2018-12-07T16:38:41.881Z,993.73
2018-12-07T16:42:12.088Z,993.79
2018-12-07T16:45:42.465Z,993.81
2018-12-07T16:49:12.615Z,993.92
2018-12-07T16:52:42.619Z,994.24
2018-12-07T16:56:12.753Z,993.81
2018-12-07T16:59:42.881Z,993.61
2018-12-07T17:03:13.020Z,993.54
2018-12-07T17:06:43.189Z,993.38
2018-12-07T17:10:13.413Z,993.21
2018-12-07T17:13:43.544Z,993.17
2018-12-07T17:17:13.742Z,992.87
2018-12-07T17:20:44.578Z,992.95
2018-12-07T17:24:14.910Z,993.14
2018-12-07T17:27:44.988Z,993.33
2018-12-07T17:31:15.287Z,993.37
2018-12-07T17:34:45.590Z,993.31
2018-12-07T17:38:15.894Z,993.36
2018-12-07T17:41:46.111Z,993.42
2018-12-07T17:45:16.299Z,993.13
2018-12-07T17:48:46.432Z,993.18
2018-12-07T17:52:16.805Z,992.94
2018-12-07T17:55:46.931Z,992.9
2018-12-07T17:59:17.199Z,992.79
2018-12-07T18:00:11.766Z,992.62
2018-12-07T18:03:41.944Z,992.73
2018-12-07T18:07:12.145Z,992.76
2018-12-07T18:10:42.400Z,992.5
2018-12-07T18:14:12.515Z,992.52
2018-12-07T18:17:42.623Z,992.39
2018-12-07T18:21:12.939Z,992.38
2018-12-07T18:24:43.113Z,992.16
2018-12-07T18:28:13.308Z,992.06
2018-12-07T18:31:43.638Z,991.96
2018-12-07T18:35:13.874Z,991.99
2018-12-07T18:38:43.898Z,991.99
2018-12-07T18:42:14.192Z,992.06
2018-12-07T18:45:44.194Z,991.61
2018-12-07T18:49:14.587Z,991.87
2018-12-07T18:52:44.779Z,991.92
2018-12-07T18:56:14.844Z,991.74
2018-12-07T18:59:45.097Z,991.51
2018-12-07T19:03:15.304Z,991.66
2018-12-07T19:06:45.435Z,991.33
2018-12-07T19:10:15.639Z,991.5
2018-12-07T19:13:45.739Z,991.45
2018-12-07T19:17:16.097Z,991.43
2018-12-07T19:20:46.144Z,991.42
2018-12-07T19:24:16.345Z,991.37
2018-12-07T19:27:46.480Z,991.29
2018-12-07T19:31:16.540Z,991.59
2018-12-07T19:34:47.041Z,991.54
2018-12-07T19:38:17.475Z,991.42
2018-12-07T19:41:47.775Z,991.67
2018-12-07T19:45:17.886Z,991.64
2018-12-07T19:48:47.993Z,991.28
2018-12-07T19:52:18.121Z,991.1
2018-12-07T19:55:48.181Z,991.28
2018-12-07T19:59:18.523Z,991.55
2018-12-07T20:00:09.241Z,991.58
2018-12-07T20:03:39.492Z,991.15
2018-12-07T20:07:09.799Z,991.12
2018-12-07T20:10:39.929Z,991.14
2018-12-07T20:14:10.110Z,991.23
2018-12-07T20:17:40.427Z,991.07
2018-12-07T20:21:10.674Z,991.31
2018-12-07T20:24:41.479Z,991.38
2018-12-07T20:28:11.665Z,991.18
2018-12-07T20:31:41.947Z,991.17
2018-12-07T20:35:12.575Z,991.32
2018-12-07T20:38:43.238Z,991.37
2018-12-07T20:42:13.831Z,991.69
2018-12-07T20:45:44.155Z,991.92
2018-12-07T20:49:14.675Z,991.96
2018-12-07T20:52:44.836Z,991.38
2018-12-07T20:56:15.008Z,990.98
2018-12-07T20:59:45.305Z,991.3
2018-12-07T21:03:15.741Z,991.2
2018-12-07T21:10:24.240Z,990.99
2018-12-07T21:14:32.781Z,990.4
2018-12-07T21:18:02.935Z,990.64
2018-12-07T21:21:33.029Z,990.64
2018-12-07T21:25:03.700Z,990.96
2018-12-07T21:28:33.788Z,991.1
2018-12-07T21:32:06.952Z,991.06
2018-12-07T21:36:34.849Z,991.02
2018-12-07T21:40:09.972Z,991.24
2018-12-07T21:43:40.122Z,991.48
2018-12-07T21:47:10.407Z,991.04
2018-12-07T21:50:42.974Z,991.38
2018-12-07T21:54:13.173Z,991.36
2018-12-07T21:57:43.755Z,991.53
2018-12-07T22:00:08.374Z,991.67
2018-12-07T22:03:38.483Z,991.6
2018-12-07T22:07:08.614Z,991.91
2018-12-07T22:10:38.832Z,991.69
2018-12-07T22:14:09.245Z,992.15
2018-12-07T22:17:39.373Z,992.26
2018-12-07T22:21:09.630Z,992.5
2018-12-07T22:24:40.113Z,993.09
2018-12-07T22:28:10.621Z,993.12
2018-12-07T22:31:40.683Z,993.68
2018-12-07T22:35:10.984Z,993.8
2018-12-07T22:38:41.008Z,993.8
2018-12-07T22:42:11.380Z,993.65
2018-12-07T22:45:41.462Z,993.06
2018-12-07T22:49:11.544Z,993.24
2018-12-07T22:52:41.559Z,993.31
2018-12-07T22:56:11.729Z,993.25
2018-12-07T22:59:41.811Z,992.84
2018-12-07T23:03:11.902Z,992.52
2018-12-07T23:06:41.927Z,992.6
2018-12-07T23:10:12.067Z,992.4
2018-12-07T23:13:42.065Z,992.41
2018-12-07T23:17:12.059Z,992.76
2018-12-07T23:20:42.132Z,992.53
2018-12-07T23:24:12.083Z,992.71
2018-12-07T23:27:42.227Z,992.75
2018-12-07T23:31:12.549Z,992.41
2018-12-07T23:34:42.506Z,992.5
2018-12-07T23:38:12.585Z,992.52
2018-12-07T23:41:42.475Z,992.76
2018-12-07T23:45:12.527Z,992.53
2018-12-07T23:48:42.609Z,992.61
2018-12-07T23:52:12.749Z,992.68
2018-12-07T23:55:42.773Z,992.49
2018-12-07T23:59:12.985Z,992.55
